Terminal Aerodrome Forecast
Issued by NWS

Home | Current Version | Previous Version | Text Only | Print | Product List | Glossary On
Versions: 1 2 3 4 5 6 7 8 9 10 11 12 13 14 15 16 17 18 19 20 21 22 23
951
FTUS45 KABQ 241741
TAFSAF
TAF
KSAF 241741Z 2418/2518 34007KT P6SM SKC
     FM242000 26011KT P6SM SKC
     FM250200 35007KT P6SM SKC
     FM251100 03018G28KT P6SM FEW050
     FM251730 10016G26KT P6SM SCT050=

USA.gov is the U.S. government's official web portal to all federal, state and local government web resources and services.